Time;durP1;ratioP1;P1;durP2;ratioP2;P2;SDS_P1;SDS_P2;PMS_P1;PMS_P2;Temp;Humidity;BMP_temperature;BMP_pressure;BME280_temperature;BME280_humidity;BME280_pressure;Samples;Min_cycle;Max_cycle;Signal;HPM_P1;HPM_P2
2021/04/12 00:01:41;;;;;;;2.78;0.88;;;;;;;;;;10282289;28;20044;-60
2021/04/12 00:06:44;;;;;;;0.20;0.20;;;;;;;;;;10271656;28;20045;-59
2021/04/12 00:11:41;;;;;;;2.60;0.43;;;;;;;;;;10266767;28;20407;-63
2021/04/12 00:16:41;;;;;;;1.80;0.40;;;;;;;;;;10278551;28;20092;-62
2021/04/12 00:21:44;;;;;;;1.80;0.95;;;;;;;;;;10281452;28;20033;-62
2021/04/12 00:26:47;;;;;;;0.30;0.30;;;;;;;;;;10277318;28;20489;-59
2021/04/12 00:31:56;;;;;;;0.88;0.85;;;;;;;;;;10277597;28;20324;-60
2021/04/12 00:36:57;;;;;;;1.55;0.60;;;;;;;;;;10275080;28;20340;-62
2021/04/12 00:42:13;;;;;;;0.30;0.30;;;;;;;;;;10272183;28;20038;-60
2021/04/12 00:47:13;;;;;;;2.17;0.55;;;;;;;;;;10277569;28;20025;-61
2021/04/12 00:52:29;;;;;;;1.25;0.60;;;;;;;;;;10279019;28;20065;-60
2021/04/12 00:57:30;;;;;;;1.75;0.70;;;;;;;;;;10264116;28;20601;-60
2021/04/12 01:02:46;;;;;;;3.28;1.20;;;;;;;;;;10276862;28;20714;-61
2021/04/12 01:07:49;;;;;;;4.82;0.93;;;;;;;;;;10277564;28;20046;-62
2021/04/12 01:12:59;;;;;;;1.88;0.30;;;;;;;;;;10279085;28;20033;-62
2021/04/12 01:18:08;;;;;;;1.90;0.57;;;;;;;;;;10288627;28;20109;-60
2021/04/12 01:23:20;;;;;;;0.68;0.60;;;;;;;;;;10316768;28;20033;-59
2021/04/12 01:28:21;;;;;;;5.55;0.90;;;;;;;;;;10321333;28;20053;-59
2021/04/12 01:33:36;;;;;;;1.17;0.90;;;;;;;;;;10319923;28;20043;-61
2021/04/12 01:38:36;;;;;;;0.50;0.50;;;;;;;;;;10321854;28;20525;-59
2021/04/12 01:43:52;;;;;;;8.77;0.85;;;;;;;;;;10319270;28;20438;-61
2021/04/12 01:48:50;;;;;;;6.32;0.70;;;;;;;;;;10321227;28;20200;-62
2021/04/12 01:54:05;;;;;;;7.23;0.93;;;;;;;;;;10321104;28;20387;-61
2021/04/12 01:59:12;;;;;;;0.90;0.52;;;;;;;;;;10320757;28;20053;-63
2021/04/12 02:04:15;;;;;;;0.80;0.75;;;;;;;;;;10314241;28;20112;-62
2021/04/12 02:09:28;;;;;;;1.42;0.73;;;;;;;;;;10317286;28;20033;-62
2021/04/12 02:14:25;;;;;;;1.52;0.40;;;;;;;;;;10314352;28;20498;-61
2021/04/12 02:19:42;;;;;;;0.60;0.60;;;;;;;;;;10323055;28;20041;-61
2021/04/12 02:25:02;;;;;;;5.25;1.38;;;;;;;;;;10319377;28;20052;-62
2021/04/12 02:30:02;;;;;;;4.97;0.65;;;;;;;;;;10294060;28;20874;-61
2021/04/12 02:35:20;;;;;;;3.13;0.38;;;;;;;;;;10277279;28;21071;-60
2021/04/12 02:40:17;;;;;;;4.22;0.73;;;;;;;;;;10273197;28;20112;-60
2021/04/12 02:45:23;;;;;;;3.53;0.90;;;;;;;;;;10275835;28;20048;-60
2021/04/12 02:50:39;;;;;;;1.35;0.80;;;;;;;;;;10278618;28;20037;-62
2021/04/12 02:55:36;;;;;;;2.33;0.60;;;;;;;;;;10295979;28;20521;-62
2021/04/12 03:00:52;;;;;;;8.90;1.23;;;;;;;;;;10289060;28;20041;-63
2021/04/12 03:06:01;;;;;;;0.80;0.63;;;;;;;;;;10270189;28;20041;-62
2021/04/12 03:11:13;;;;;;;0.30;0.30;;;;;;;;;;10303629;28;20675;-62
2021/04/12 03:16:22;;;;;;;0.90;0.60;;;;;;;;;;10316168;28;20114;-61
2021/04/12 03:21:38;;;;;;;2.10;0.65;;;;;;;;;;10316770;28;20277;-61
2021/04/12 03:26:54;;;;;;;2.03;0.70;;;;;;;;;;10320002;28;20037;-59
2021/04/12 03:32:03;;;;;;;0.55;0.52;;;;;;;;;;10312039;28;20041;-60
2021/04/12 03:37:18;;;;;;;2.90;1.27;;;;;;;;;;10319163;28;20126;-61
2021/04/12 03:42:22;;;;;;;0.70;0.38;;;;;;;;;;10314118;28;20543;-62
2021/04/12 03:47:19;;;;;;;0.40;0.40;;;;;;;;;;10319024;28;20040;-62
2021/04/12 03:52:35;;;;;;;6.03;0.60;;;;;;;;;;10318619;28;20518;-62
2021/04/12 03:57:51;;;;;;;2.17;0.75;;;;;;;;;;10332926;28;20053;-60
2021/04/12 04:02:52;;;;;;;4.55;0.50;;;;;;;;;;10310557;28;20036;-61
2021/04/12 04:08:08;;;;;;;5.78;1.88;;;;;;;;;;10278404;28;20036;-59
2021/04/12 04:13:14;;;;;;;2.00;0.63;;;;;;;;;;10274035;28;20033;-61
2021/04/12 04:18:12;;;;;;;2.90;0.68;;;;;;;;;;10303060;28;20045;-59
2021/04/12 04:23:30;;;;;;;3.20;0.60;;;;;;;;;;10313685;28;20041;-59
2021/04/12 04:28:28;;;;;;;4.23;1.00;;;;;;;;;;10318262;28;20037;-61
2021/04/12 04:33:32;;;;;;;5.03;0.83;;;;;;;;;;10311556;28;20040;-61
2021/04/12 04:38:51;;;;;;;0.77;0.55;;;;;;;;;;10312220;28;20291;-60
2021/04/12 04:43:52;;;;;;;9.57;0.77;;;;;;;;;;10308994;28;20158;-63
2021/04/12 04:48:52;;;;;;;1.08;0.65;;;;;;;;;;10275783;28;20533;-60
2021/04/12 04:53:49;;;;;;;5.63;1.75;;;;;;;;;;10276788;28;20042;-62
2021/04/12 04:58:57;;;;;;;0.63;0.63;;;;;;;;;;10270455;28;20063;-61
2021/04/12 05:04:13;;;;;;;1.98;0.70;;;;;;;;;;10271463;28;20466;-62
2021/04/12 05:09:14;;;;;;;2.83;0.75;;;;;;;;;;10283877;28;20037;-61
2021/04/12 05:14:14;;;;;;;0.45;0.30;;;;;;;;;;10271473;28;20033;-61
2021/04/12 05:19:17;;;;;;;2.00;0.70;;;;;;;;;;10267148;28;20060;-62
2021/04/12 05:24:33;;;;;;;1.92;0.60;;;;;;;;;;10275645;28;20022;-60
2021/04/12 05:29:33;;;;;;;1.75;0.95;;;;;;;;;;10264255;28;20346;-63
2021/04/12 05:34:50;;;;;;;5.32;0.40;;;;;;;;;;10255318;28;20526;-61
2021/04/12 05:39:53;;;;;;;2.00;0.95;;;;;;;;;;10272200;28;20037;-61
2021/04/12 05:45:09;;;;;;;5.95;1.15;;;;;;;;;;10317051;28;20040;-62
2021/04/12 05:50:19;;;;;;;0.90;0.50;;;;;;;;;;10317353;28;20041;-63
2021/04/12 05:55:55;;;;;;;3.20;1.10;;;;;;;;;;10284069;28;20525;-61
2021/04/12 06:00:58;;;;;;;3.45;1.08;;;;;;;;;;10233219;28;20705;-62
2021/04/12 06:06:01;;;;;;;3.53;1.33;;;;;;;;;;10258594;28;20533;-60
2021/04/12 06:11:17;;;;;;;4.65;1.13;;;;;;;;;;10310897;28;20041;-60
2021/04/12 06:16:34;;;;;;;2.25;1.00;;;;;;;;;;10297175;28;20037;-59
2021/04/12 06:21:45;;;;;;;2.15;0.90;;;;;;;;;;10306143;28;20044;-59
2021/04/12 06:26:51;;;;;;;1.65;1.08;;;;;;;;;;10306760;28;20124;-61
2021/04/12 06:31:49;;;;;;;8.18;1.48;;;;;;;;;;10305648;28;20514;-59
2021/04/12 06:36:55;;;;;;;0.50;0.50;;;;;;;;;;10304866;28;20044;-59
2021/04/12 06:41:56;;;;;;;3.60;0.77;;;;;;;;;;10302276;28;21072;-62
2021/04/12 06:47:12;;;;;;;3.20;0.85;;;;;;;;;;10300978;28;20039;-61
2021/04/12 06:52:28;;;;;;;1.58;0.60;;;;;;;;;;10295636;28;20167;-59
2021/04/12 06:57:25;;;;;;;2.63;1.20;;;;;;;;;;10309451;28;20038;-60
2021/04/12 07:02:43;;;;;;;0.40;0.40;;;;;;;;;;10305282;28;20450;-59
2021/04/12 07:07:40;;;;;;;2.10;0.63;;;;;;;;;;10234033;28;20638;-62
2021/04/12 07:12:47;;;;;;;0.60;0.60;;;;;;;;;;10265437;28;20352;-60
2021/04/12 07:17:54;;;;;;;0.82;0.55;;;;;;;;;;10258601;28;20037;-61
2021/04/12 07:22:51;;;;;;;1.85;0.90;;;;;;;;;;10267110;28;20042;-59
2021/04/12 07:27:54;;;;;;;3.20;0.73;;;;;;;;;;10265946;28;20034;-61
2021/04/12 07:33:10;;;;;;;0.77;0.60;;;;;;;;;;10268941;28;20394;-60
2021/04/12 07:38:08;;;;;;;2.38;0.63;;;;;;;;;;10271425;28;20431;-62
2021/04/12 07:43:38;;;;;;;0.50;0.37;;;;;;;;;;10297341;28;20827;-61
2021/04/12 07:48:44;;;;;;;4.35;0.90;;;;;;;;;;10264563;28;20510;-60
2021/04/12 07:54:08;;;;;;;1.83;1.25;;;;;;;;;;10268483;28;20120;-61
2021/04/12 07:59:24;;;;;;;2.75;0.82;;;;;;;;;;10286177;28;20044;-61
2021/04/12 08:04:40;;;;;;;1.63;0.70;;;;;;;;;;10293460;28;20049;-61
2021/04/12 08:09:42;;;;;;;0.30;0.30;;;;;;;;;;10264119;28;20049;-61
2021/04/12 08:14:55;;;;;;;2.20;0.60;;;;;;;;;;10261220;28;20375;-59
2021/04/12 08:20:01;;;;;;;3.42;0.60;;;;;;;;;;10265509;28;20033;-62
2021/04/12 08:25:08;;;;;;;1.98;0.35;;;;;;;;;;10264565;28;20048;-60
2021/04/12 08:30:06;;;;;;;0.30;0.22;;;;;;;;;;10270657;28;20044;-62
2021/04/12 08:35:22;;;;;;;2.83;0.77;;;;;;;;;;10270310;28;20033;-60
2021/04/12 08:40:38;;;;;;;0.28;0.28;;;;;;;;;;10297288;28;20033;-60
2021/04/12 08:45:54;;;;;;;0.90;0.32;;;;;;;;;;10296112;28;20064;-60
2021/04/12 08:51:04;;;;;;;2.13;0.40;;;;;;;;;;10298822;28;20041;-61
2021/04/12 08:56:20;;;;;;;0.47;0.30;;;;;;;;;;10306952;28;20037;-61
2021/04/12 09:01:36;;;;;;;1.05;0.32;;;;;;;;;;10283543;28;20136;-61
2021/04/12 09:06:46;;;;;;;0.75;0.47;;;;;;;;;;10278722;28;20041;-58
2021/04/12 09:11:49;;;;;;;0.63;0.30;;;;;;;;;;10274777;28;20427;-58
2021/04/12 09:17:05;;;;;;;2.78;0.30;;;;;;;;;;10272984;28;20359;-59
2021/04/12 09:22:22;;;;;;;0.20;0.20;;;;;;;;;;10264257;28;20068;-58
2021/04/12 09:27:22;;;;;;;1.00;0.13;;;;;;;;;;10304849;28;20504;-58
2021/04/12 09:32:38;;;;;;;0.30;0.30;;;;;;;;;;10311624;28;20713;-61
2021/04/12 09:37:41;;;;;;;0.35;0.25;;;;;;;;;;10313546;28;20649;-58
2021/04/12 09:42:48;;;;;;;0.57;0.30;;;;;;;;;;10313074;28;20037;-59
2021/04/12 09:47:51;;;;;;;1.65;0.20;;;;;;;;;;10306518;28;20131;-60
2021/04/12 09:53:08;;;;;;;0.77;0.35;;;;;;;;;;10310379;28;20163;-58
2021/04/12 09:58:20;;;;;;;3.15;0.30;;;;;;;;;;10316119;28;20032;-56
2021/04/12 10:03:18;;;;;;;0.82;0.40;;;;;;;;;;10276255;28;20036;-62
2021/04/12 10:08:15;;;;;;;1.53;0.33;;;;;;;;;;10313768;28;20032;-58
2021/04/12 10:13:30;;;;;;;0.17;0.17;;;;;;;;;;10308942;28;20034;-59
2021/04/12 10:18:27;;;;;;;0.40;0.40;;;;;;;;;;10313016;28;20506;-57
2021/04/12 10:23:27;;;;;;;1.43;0.50;;;;;;;;;;10294048;28;20048;-60
2021/04/12 10:28:30;;;;;;;0.80;0.28;;;;;;;;;;10311865;28;20047;-61
2021/04/12 10:34:00;;;;;;;0.55;0.13;;;;;;;;;;10309843;28;20041;-58
2021/04/12 10:39:03;;;;;;;0.75;0.22;;;;;;;;;;10294424;28;20375;-60
2021/04/12 10:44:13;;;;;;;0.10;0.10;;;;;;;;;;10311798;28;20040;-61
2021/04/12 10:49:16;;;;;;;2.80;0.50;;;;;;;;;;10294435;28;20036;-59
2021/04/12 10:54:26;;;;;;;0.85;0.40;;;;;;;;;;10303350;28;20041;-60
2021/04/12 10:59:42;;;;;;;3.00;1.10;;;;;;;;;;10303173;28;20293;-61
2021/04/12 11:05:00;;;;;;;1.13;0.60;;;;;;;;;;10307908;28;20111;-61
2021/04/12 11:09:57;;;;;;;2.22;0.65;;;;;;;;;;10299755;28;20577;-60
2021/04/12 11:14:57;;;;;;;2.60;0.60;;;;;;;;;;10302415;28;20067;-60
2021/04/12 11:20:10;;;;;;;2.88;1.20;;;;;;;;;;10298964;28;20433;-61
2021/04/12 11:25:13;;;;;;;0.52;0.47;;;;;;;;;;10301382;28;20043;-59
2021/04/12 11:30:17;;;;;;;0.63;0.40;;;;;;;;;;10308474;28;20049;-60
2021/04/12 11:35:19;;;;;;;0.63;0.30;;;;;;;;;;10299441;28;20138;-59
2021/04/12 11:40:19;;;;;;;0.20;0.20;;;;;;;;;;10277625;28;20038;-60
2021/04/12 11:45:19;;;;;;;1.20;0.35;;;;;;;;;;10261031;28;20045;-60
2021/04/12 11:50:28;;;;;;;0.40;0.20;;;;;;;;;;10259358;28;20048;-57
2021/04/12 11:55:25;;;;;;;1.17;0.43;;;;;;;;;;10266910;28;21265;-61
2021/04/12 12:00:28;;;;;;;2.80;0.60;;;;;;;;;;10269676;28;20072;-60
2021/04/12 12:05:28;;;;;;;0.35;0.30;;;;;;;;;;10264106;28;20045;-58
2021/04/12 12:10:31;;;;;;;0.75;0.43;;;;;;;;;;10273229;28;20041;-60
2021/04/12 12:16:04;;;;;;;1.75;0.50;;;;;;;;;;10281643;28;20080;-60
2021/04/12 12:21:01;;;;;;;3.15;0.52;;;;;;;;;;10215941;28;20033;-61
2021/04/12 12:26:00;;;;;;;0.10;0.10;;;;;;;;;;10268592;28;20069;-59
2021/04/12 12:31:01;;;;;;;0.50;0.40;;;;;;;;;;10275871;28;20065;-60
2021/04/12 12:36:01;;;;;;;2.42;0.52;;;;;;;;;;10278048;28;20033;-61
2021/04/12 12:41:01;;;;;;;11.18;4.38;;;;;;;;;;10271559;28;20067;-60
2021/04/12 12:46:12;;;;;;;36.22;12.40;;;;;;;;;;10277335;28;20042;-60
2021/04/12 12:51:09;;;;;;;44.70;15.35;;;;;;;;;;10273589;28;20537;-60
2021/04/12 12:56:16;;;;;;;60.23;20.63;;;;;;;;;;10265504;28;20484;-60
2021/04/12 13:01:13;;;;;;;54.08;18.77;;;;;;;;;;10268785;28;20501;-59
2021/04/12 13:06:19;;;;;;;27.57;10.33;;;;;;;;;;10267468;28;20057;-60
2021/04/12 13:11:35;;;;;;;48.90;16.13;;;;;;;;;;10266218;28;20037;-62
2021/04/12 13:16:33;;;;;;;34.05;12.30;;;;;;;;;;10264478;28;20136;-60
2021/04/12 13:21:33;;;;;;;24.87;9.17;;;;;;;;;;10261995;28;20041;-61
2021/04/12 13:26:40;;;;;;;19.45;6.35;;;;;;;;;;10269876;28;22042;-60
2021/04/12 13:31:37;;;;;;;15.07;6.97;;;;;;;;;;10261305;28;20041;-61
2021/04/12 13:36:39;;;;;;;19.87;6.33;;;;;;;;;;10264004;28;20044;-60
2021/04/12 13:41:42;;;;;;;11.40;5.13;;;;;;;;;;10272276;28;20026;-61
2021/04/12 13:46:52;;;;;;;6.88;4.03;;;;;;;;;;10269347;28;20084;-61
2021/04/12 13:51:56;;;;;;;10.55;4.00;;;;;;;;;;10269510;28;20541;-60
2021/04/12 13:57:19;;;;;;;7.70;3.08;;;;;;;;;;10263763;28;20036;-60
2021/04/12 14:02:26;;;;;;;11.00;3.05;;;;;;;;;;10264329;28;20132;-59
2021/04/12 14:07:29;;;;;;;8.48;2.65;;;;;;;;;;10270190;28;20041;-60
2021/04/12 14:12:29;;;;;;;8.43;2.40;;;;;;;;;;10267892;28;20056;-62
2021/04/12 14:17:30;;;;;;;6.32;2.55;;;;;;;;;;10263130;28;20185;-62
2021/04/12 14:22:33;;;;;;;1.83;1.00;;;;;;;;;;10270829;28;20507;-59
2021/04/12 14:27:32;;;;;;;3.42;1.50;;;;;;;;;;10261195;28;20076;-62
2021/04/12 14:32:49;;;;;;;4.85;1.92;;;;;;;;;;10242848;28;20447;-61
2021/04/12 14:37:47;;;;;;;3.75;0.82;;;;;;;;;;10262220;28;20449;-62
2021/04/12 14:42:56;;;;;;;1.70;0.60;;;;;;;;;;10315294;28;20029;-61
2021/04/12 14:48:04;;;;;;;0.88;0.35;;;;;;;;;;10273430;28;20307;-62
2021/04/12 14:53:09;;;;;;;2.55;0.73;;;;;;;;;;10299872;28;20553;-64
2021/04/12 14:58:19;;;;;;;1.75;0.73;;;;;;;;;;10252474;28;20028;-62
2021/04/12 15:03:19;;;;;;;1.73;0.40;;;;;;;;;;10290809;28;20029;-62
2021/04/12 15:08:27;;;;;;;0.43;0.40;;;;;;;;;;10300421;28;20032;-60
2021/04/12 15:13:27;;;;;;;0.87;0.40;;;;;;;;;;10304202;28;20079;-63
2021/04/12 15:18:30;;;;;;;1.77;0.43;;;;;;;;;;10293887;28;20514;-63
2021/04/12 15:23:28;;;;;;;0.15;0.13;;;;;;;;;;10300316;28;20746;-60
2021/04/12 15:28:28;;;;;;;4.00;0.60;;;;;;;;;;10264778;28;20063;-62
2021/04/12 15:33:27;;;;;;;0.60;0.20;;;;;;;;;;10261457;28;20042;-60
2021/04/12 15:38:25;;;;;;;0.38;0.38;;;;;;;;;;10266277;28;20553;-62
2021/04/12 15:43:25;;;;;;;1.07;0.40;;;;;;;;;;10269749;28;20637;-63
2021/04/12 15:48:25;;;;;;;1.08;0.30;;;;;;;;;;10310079;28;20581;-62
2021/04/12 15:53:22;;;;;;;0.77;0.40;;;;;;;;;;10296700;28;20029;-63
2021/04/12 15:58:20;;;;;;;1.97;0.30;;;;;;;;;;10294945;28;20051;-62
2021/04/12 16:03:22;;;;;;;0.20;0.20;;;;;;;;;;10311351;28;20491;-63
2021/04/12 16:08:23;;;;;;;0.88;0.20;;;;;;;;;;10294385;28;20064;-64
2021/04/12 16:13:23;;;;;;;0.30;0.30;;;;;;;;;;10287808;28;20029;-61
2021/04/12 16:18:26;;;;;;;1.23;0.40;;;;;;;;;;10307186;28;20135;-62
2021/04/12 16:23:31;;;;;;;2.65;0.30;;;;;;;;;;10313286;28;20045;-63
2021/04/12 16:28:33;;;;;;;0.20;0.20;;;;;;;;;;10318268;28;20530;-62
2021/04/12 16:33:44;;;;;;;2.80;0.40;;;;;;;;;;10305750;28;20048;-62
2021/04/12 16:38:44;;;;;;;1.58;0.40;;;;;;;;;;10304094;28;20610;-61
2021/04/12 16:43:48;;;;;;;0.88;0.28;;;;;;;;;;10308333;28;20166;-63
2021/04/12 16:48:51;;;;;;;0.20;0.20;;;;;;;;;;10312873;28;20041;-62
2021/04/12 16:53:54;;;;;;;0.70;0.25;;;;;;;;;;10309816;28;20498;-61
2021/04/12 16:59:14;;;;;;;0.45;0.30;;;;;;;;;;10317247;28;20044;-61
2021/04/12 17:04:25;;;;;;;0.75;0.20;;;;;;;;;;10305166;28;20424;-61
2021/04/12 17:14:30;;;;;;;1.35;0.73;;;;;;;;;;10299353;28;20575;-61
2021/04/12 17:19:31;;;;;;;1.67;0.32;;;;;;;;;;10311412;28;20052;-62
2021/04/12 17:24:31;;;;;;;1.52;0.50;;;;;;;;;;10307198;28;20320;-59
2021/04/12 17:29:30;;;;;;;0.68;0.32;;;;;;;;;;10307248;28;20048;-62
2021/04/12 17:34:34;;;;;;;0.43;0.20;;;;;;;;;;10308482;28;20041;-62
2021/04/12 17:39:37;;;;;;;1.73;0.40;;;;;;;;;;10302641;28;20641;-60
2021/04/12 17:44:39;;;;;;;1.33;0.30;;;;;;;;;;10309719;28;20144;-62
2021/04/12 17:49:54;;;;;;;1.08;0.20;;;;;;;;;;10310891;28;20032;-58
2021/04/12 17:55:05;;;;;;;0.35;0.28;;;;;;;;;;10310246;28;20037;-61
2021/04/12 18:00:05;;;;;;;1.58;0.65;;;;;;;;;;10295403;28;20064;-59
2021/04/12 18:05:07;;;;;;;0.95;0.32;;;;;;;;;;10303580;28;20130;-62
2021/04/12 18:10:27;;;;;;;6.82;3.22;;;;;;;;;;10286957;28;20474;-61
2021/04/12 18:15:25;;;;;;;0.65;0.32;;;;;;;;;;10260376;28;20038;-60
2021/04/12 18:20:25;;;;;;;1.53;1.17;;;;;;;;;;10269735;28;20029;-59
2021/04/12 18:25:33;;;;;;;1.80;0.77;;;;;;;;;;10272973;28;20077;-61
2021/04/12 18:30:31;;;;;;;2.75;0.98;;;;;;;;;;10252104;28;20037;-61
2021/04/12 18:35:28;;;;;;;;;;;;;;;;;;10281216;28;20124;-61
2021/04/12 18:40:32;;;;;;;6.53;0.98;;;;;;;;;;10303174;28;19921;-62
2021/04/12 18:45:42;;;;;;;1.17;0.57;;;;;;;;;;10321039;28;20182;-60
2021/04/12 18:51:03;;;;;;;4.40;1.67;;;;;;;;;;10299807;28;20106;-61
2021/04/12 18:56:03;;;;;;;8.70;3.28;;;;;;;;;;10265397;28;20167;-60
2021/04/12 19:01:12;;;;;;;10.02;3.92;;;;;;;;;;10287131;28;20025;-64
2021/04/12 19:06:09;;;;;;;6.13;3.25;;;;;;;;;;10278675;28;20120;-63
2021/04/12 19:11:09;;;;;;;8.50;4.03;;;;;;;;;;10260763;28;20044;-61
2021/04/12 19:16:22;;;;;;;14.32;5.05;;;;;;;;;;10255743;28;20122;-63
2021/04/12 19:21:38;;;;;;;10.95;4.00;;;;;;;;;;10260617;28;20095;-65
2021/04/12 19:26:48;;;;;;;27.98;9.20;;;;;;;;;;10267651;28;20533;-63
2021/04/12 19:31:46;;;;;;;41.63;13.13;;;;;;;;;;10264069;28;20051;-62
2021/04/12 19:36:49;;;;;;;15.60;5.57;;;;;;;;;;10263323;28;20544;-63
2021/04/12 19:42:00;;;;;;;26.65;7.65;;;;;;;;;;10242948;28;20065;-61
2021/04/12 19:47:16;;;;;;;14.88;4.53;;;;;;;;;;10255171;28;20041;-62
2021/04/12 19:52:17;;;;;;;10.20;3.35;;;;;;;;;;10253922;28;20040;-62
2021/04/12 19:57:26;;;;;;;7.93;3.42;;;;;;;;;;10243305;28;20037;-62
2021/04/12 20:02:24;;;;;;;9.20;2.45;;;;;;;;;;10278856;28;20025;-63
2021/04/12 20:07:27;;;;;;;5.33;2.90;;;;;;;;;;10285859;28;20048;-62
2021/04/12 20:12:47;;;;;;;5.72;2.08;;;;;;;;;;10288254;28;20041;-61
2021/04/12 20:18:00;;;;;;;2.97;1.70;;;;;;;;;;10295952;28;20041;-62
2021/04/12 20:23:01;;;;;;;3.92;1.67;;;;;;;;;;10248227;28;20179;-60
2021/04/12 20:28:08;;;;;;;4.35;1.38;;;;;;;;;;10257977;28;20099;-61
2021/04/12 20:33:18;;;;;;;4.15;1.23;;;;;;;;;;10299620;28;20040;-61
2021/04/12 20:38:33;;;;;;;3.83;1.27;;;;;;;;;;10299977;28;20032;-60
2021/04/12 20:43:31;;;;;;;6.72;1.52;;;;;;;;;;10304309;28;20041;-59
2021/04/12 20:48:31;;;;;;;4.00;1.00;;;;;;;;;;10298471;28;20506;-59
2021/04/12 20:53:33;;;;;;;1.20;1.02;;;;;;;;;;10305798;28;20360;-63
2021/04/12 20:58:33;;;;;;;3.60;1.00;;;;;;;;;;10300964;28;20106;-64
2021/04/12 21:03:43;;;;;;;3.13;1.20;;;;;;;;;;10308867;28;20037;-63
2021/04/12 21:08:46;;;;;;;1.75;0.77;;;;;;;;;;10303691;28;20129;-63
2021/04/12 21:13:45;;;;;;;4.45;0.88;;;;;;;;;;10261505;28;20033;-63
2021/04/12 21:18:43;;;;;;;3.08;0.57;;;;;;;;;;10268906;28;20033;-63
2021/04/12 21:23:46;;;;;;;1.30;0.50;;;;;;;;;;10245358;28;20118;-62
2021/04/12 21:28:55;;;;;;;3.05;0.75;;;;;;;;;;10296978;28;20034;-63
2021/04/12 21:33:55;;;;;;;2.30;0.77;;;;;;;;;;10271237;28;20044;-63
2021/04/12 21:39:01;;;;;;;2.42;0.55;;;;;;;;;;10277751;28;20387;-63
2021/04/12 21:44:05;;;;;;;2.33;0.63;;;;;;;;;;10308997;28;20041;-63
2021/04/12 21:49:12;;;;;;;3.92;0.40;;;;;;;;;;10306457;28;20045;-63
2021/04/12 21:54:28;;;;;;;1.95;0.50;;;;;;;;;;10300910;28;20057;-62
2021/04/12 21:59:44;;;;;;;2.03;0.55;;;;;;;;;;10302484;28;20051;-64
2021/04/12 22:04:43;;;;;;;3.75;0.90;;;;;;;;;;10287514;28;20102;-61
2021/04/12 22:09:56;;;;;;;1.65;0.50;;;;;;;;;;10309230;28;20045;-61
2021/04/12 22:14:53;;;;;;;0.95;0.60;;;;;;;;;;10298974;28;20044;-59
2021/04/12 22:20:10;;;;;;;1.00;0.70;;;;;;;;;;10313691;28;20466;-63
2021/04/12 22:25:10;;;;;;;0.25;0.25;;;;;;;;;;10315215;28;20045;-63
2021/04/12 22:30:20;;;;;;;1.25;0.40;;;;;;;;;;10306313;28;20558;-60
2021/04/12 22:40:31;;;;;;;2.72;0.47;;;;;;;;;;10311855;28;20606;-63
2021/04/12 22:45:34;;;;;;;0.75;0.60;;;;;;;;;;10291073;28;20352;-64
2021/04/12 22:50:34;;;;;;;1.67;0.60;;;;;;;;;;10286269;28;20037;-62
2021/04/12 22:55:37;;;;;;;0.73;0.60;;;;;;;;;;10305352;28;20521;-60
2021/04/12 23:00:34;;;;;;;1.95;0.50;;;;;;;;;;10306302;28;20075;-62
2021/04/12 23:05:34;;;;;;;2.03;0.63;;;;;;;;;;10312516;28;20114;-62
2021/04/12 23:10:40;;;;;;;0.85;0.68;;;;;;;;;;10312728;28;20041;-63
2021/04/12 23:15:42;;;;;;;1.83;0.40;;;;;;;;;;10311733;28;20402;-62
2021/04/12 23:20:41;;;;;;;0.98;0.50;;;;;;;;;;10311342;28;20033;-60
2021/04/12 23:25:39;;;;;;;0.30;0.30;;;;;;;;;;10309886;28;20037;-60
2021/04/12 23:30:37;;;;;;;1.20;0.70;;;;;;;;;;10316815;28;20051;-61
2021/04/12 23:35:35;;;;;;;1.17;0.40;;;;;;;;;;10304014;28;20060;-62
2021/04/12 23:40:33;;;;;;;1.37;0.67;;;;;;;;;;10305742;28;20033;-61
2021/04/12 23:45:30;;;;;;;3.93;0.60;;;;;;;;;;10313263;28;20132;-62
2021/04/12 23:50:31;;;;;;;8.27;1.00;;;;;;;;;;10311506;28;20056;-63
2021/04/12 23:55:40;;;;;;;0.45;0.40;;;;;;;;;;10307846;28;20040;-63
